Time;durP1;ratioP1;P1;durP2;ratioP2;P2;SDS_P1;SDS_P2;PMS_P1;PMS_P2;Temp;Humidity;BMP_temperature;BMP_pressure;BME280_temperature;BME280_humidity;BME280_pressure;Samples;Min_cycle;Max_cycle;Signal;HPM_P1;HPM_P2
2021/05/18 00:01:22;;;;;;;0.52;0.20;;;;;;;27.80;30.26;96218.88;5024487;28;20530;-34
2021/05/18 00:03:47;;;;;;;1.27;0.40;;;;;;;27.79;30.29;96222.47;5024799;28;20037;-31
2021/05/18 00:06:13;;;;;;;0.57;0.22;;;;;;;27.79;30.26;96222.47;5023838;28;20052;-30
2021/05/18 00:14:06;;;;;;;0.30;0.20;;;;;;;27.78;30.27;96236.59;5034933;28;20563;-34
2021/05/18 00:16:32;;;;;;;1.10;0.20;;;;;;;27.78;30.33;96226.06;5025902;28;20037;-36
2021/05/18 00:18:57;;;;;;;0.40;0.20;;;;;;;27.78;30.27;96226.06;5030088;28;20025;-32
2021/05/18 00:21:23;;;;;;;0.17;0.17;;;;;;;27.77;30.39;96225.19;5028958;28;20078;-34
2021/05/18 00:23:48;;;;;;;0.25;0.20;;;;;;;27.78;30.62;96231.31;5026313;28;20040;-33
2021/05/18 00:26:13;;;;;;;0.88;0.20;;;;;;;27.78;30.36;96226.06;5030048;28;20109;-35
2021/05/18 00:28:39;;;;;;;1.77;0.20;;;;;;;27.78;30.34;96231.31;5022452;28;20427;-37
2021/05/18 00:31:04;;;;;;;0.80;0.10;;;;;;;27.78;30.34;96226.06;5025659;28;20044;-35
2021/05/18 00:33:30;;;;;;;2.08;0.30;;;;;;;27.78;30.37;96231.31;5028231;28;20041;-33
2021/05/18 00:35:55;;;;;;;0.30;0.20;;;;;;;27.77;30.43;96227.84;5034917;28;20036;-33
2021/05/18 00:38:21;;;;;;;0.60;0.22;;;;;;;27.77;30.32;96227.84;5028915;28;20031;-32
2021/05/18 00:40:49;;;;;;;0.50;0.25;;;;;;;27.77;30.42;96230.47;5029736;28;20039;-33
2021/05/18 00:43:15;;;;;;;1.27;0.20;;;;;;;27.76;30.31;96225.31;5033563;28;20103;-33
2021/05/18 00:45:47;;;;;;;0.60;0.10;;;;;;;27.78;30.27;96231.31;5033940;28;20044;-29
2021/05/18 00:48:16;;;;;;;0.22;0.20;;;;;;;27.77;30.29;96232.28;5022263;28;20029;-34
2021/05/18 00:50:45;;;;;;;0.43;0.25;;;;;;;27.75;30.38;96232.38;5034481;28;20684;-33
2021/05/18 00:53:10;;;;;;;1.50;0.40;;;;;;;27.71;30.30;96220.38;5030281;28;20153;-36
2021/05/18 00:55:41;;;;;;;0.22;0.20;;;;;;;27.74;30.41;96230.69;5033083;28;20028;-29
2021/05/18 00:58:27;;;;;;;0.22;0.22;;;;;;;27.74;30.22;96235.13;5035802;28;20035;-34
2021/05/18 01:00:57;;;;;;;1.45;0.30;;;;;;;27.75;30.34;96242.06;5022360;28;20037;-32
2021/05/18 01:03:23;;;;;;;0.80;0.30;;;;;;;27.73;30.34;96239.53;5029522;28;20146;-37
2021/05/18 01:08:32;;;;;;;0.40;0.10;;;;;;;27.73;30.21;96246.59;5029419;28;20071;-36
2021/05/18 01:10:58;;;;;;;0.47;0.20;;;;;;;27.73;30.37;96249.22;5022661;28;21067;-35
2021/05/18 01:13:24;;;;;;;0.13;0.13;;;;;;;27.73;30.33;96251.88;5029845;28;20083;-31
2021/05/18 01:15:49;;;;;;;0.77;0.30;;;;;;;27.73;30.35;96254.50;5029692;28;20037;-31
2021/05/18 01:18:15;;;;;;;0.22;0.20;;;;;;;27.72;30.42;96268.63;5030928;28;20021;-31
2021/05/18 01:20:52;;;;;;;0.38;0.20;;;;;;;27.71;30.35;96262.50;5025265;28;20078;-32
2021/05/18 01:23:17;;;;;;;0.25;0.10;;;;;;;27.72;30.40;96260.72;5028604;28;20094;-35
2021/05/18 01:25:43;;;;;;;1.40;0.20;;;;;;;27.73;30.33;96265.03;5025345;28;20688;-32
2021/05/18 01:28:08;;;;;;;0.50;0.10;;;;;;;27.72;30.30;96264.19;5034507;28;20039;-34
2021/05/18 01:30:34;;;;;;;0.55;0.20;;;;;;;27.72;30.23;96269.44;5030345;28;20458;-37
2021/05/18 01:32:59;;;;;;;0.57;0.20;;;;;;;27.72;30.38;96274.69;5030129;28;20029;-32
2021/05/18 01:35:24;;;;;;;0.45;0.30;;;;;;;27.72;30.30;96255.44;5028629;28;20048;-36
2021/05/18 01:37:50;;;;;;;0.88;0.20;;;;;;;27.72;30.41;96252.81;5032028;28;20036;-29
2021/05/18 01:42:52;;;;;;;1.23;0.20;;;;;;;27.71;30.31;96235.31;5037381;28;20025;-36
2021/05/18 01:45:32;;;;;;;0.35;0.30;;;;;;;27.69;30.24;96238.06;5034052;28;20025;-33
2021/05/18 01:48:03;;;;;;;0.52;0.17;;;;;;;27.72;30.34;96242.28;5036697;28;20115;-32
2021/05/18 01:50:29;;;;;;;0.35;0.15;;;;;;;27.71;30.30;96230.91;5035175;28;20024;-30
2021/05/18 01:52:57;;;;;;;0.15;0.10;;;;;;;27.71;30.37;96243.22;5035330;28;20375;-34
2021/05/18 01:55:34;;;;;;;0.73;0.22;;;;;;;27.70;30.23;96239.75;5031300;28;20058;-36
2021/05/18 01:58:00;;;;;;;0.88;0.22;;;;;;;27.70;30.33;96249.44;5030407;28;20032;-32
2021/05/18 02:00:27;;;;;;;0.10;0.10;;;;;;;27.70;30.34;96257.34;5031684;28;20048;-32
2021/05/18 02:02:52;;;;;;;0.10;0.10;;;;;;;27.69;30.29;96264.38;5028979;28;20671;-36
2021/05/18 02:05:18;;;;;;;0.20;0.10;;;;;;;27.68;30.18;96262.69;5024961;28;20063;-36
2021/05/18 02:07:45;;;;;;;0.30;0.20;;;;;;;27.69;30.42;96263.56;5023421;28;20568;-34
2021/05/18 02:10:12;;;;;;;0.52;0.35;;;;;;;27.70;30.23;96271.34;5022194;28;20032;-32
2021/05/18 02:12:37;;;;;;;0.30;0.20;;;;;;;27.69;30.25;96274.91;5035100;28;20552;-34
2021/05/18 02:15:14;;;;;;;0.88;0.22;;;;;;;27.70;30.33;96278.41;5028268;28;20089;-37
2021/05/18 02:17:44;;;;;;;0.15;0.10;;;;;;;27.70;30.35;96273.97;5034781;28;20061;-35
2021/05/18 02:25:23;;;;;;;0.22;0.10;;;;;;;27.68;30.38;96275.88;5013002;28;20605;-33
2021/05/18 02:27:49;;;;;;;0.45;0.20;;;;;;;27.69;30.34;96276.72;5029561;28;20024;-38
2021/05/18 02:30:15;;;;;;;1.65;0.20;;;;;;;27.68;30.27;96285.56;5027504;28;20021;-32
2021/05/18 02:32:40;;;;;;;0.08;0.08;;;;;;;27.68;30.14;96278.50;5029432;28;20171;-36
2021/05/18 02:35:07;;;;;;;0.20;0.20;;;;;;;27.68;30.30;96277.66;5031405;28;20095;-35
2021/05/18 02:37:33;;;;;;;1.75;0.20;;;;;;;27.67;30.25;96275.97;5033384;28;20041;-32
2021/05/18 02:39:58;;;;;;;0.90;0.10;;;;;;;27.67;30.28;96274.19;5033172;28;20024;-37
2021/05/18 02:42:24;;;;;;;0.65;0.10;;;;;;;27.67;30.19;96278.59;5035347;28;20063;-32
2021/05/18 02:44:57;;;;;;;0.10;0.10;;;;;;;27.67;30.29;96287.34;5025222;28;20029;-32
2021/05/18 02:50:07;;;;;;;1.13;0.20;;;;;;;27.68;30.18;96288.19;5033657;28;20067;-33
2021/05/18 02:52:33;;;;;;;0.55;0.10;;;;;;;27.65;30.39;96287.44;5028319;28;20037;-31
2021/05/18 02:54:59;;;;;;;1.00;0.17;;;;;;;27.65;30.35;96274.28;5031191;28;20021;-34
2021/05/18 02:57:37;;;;;;;1.75;0.28;;;;;;;27.65;30.34;96278.72;5032276;28;20032;-36
2021/05/18 03:00:16;;;;;;;1.17;0.15;;;;;;;27.64;30.39;96287.56;5023215;28;20033;-32
2021/05/18 03:02:42;;;;;;;0.00;0.00;;;;;;;27.64;30.35;96288.41;5018787;28;20716;-38
2021/05/18 03:05:08;;;;;;;0.10;0.10;;;;;;;27.64;30.20;96300.72;5030029;28;20033;-37
2021/05/18 03:07:33;;;;;;;0.10;0.10;;;;;;;27.63;30.39;96297.25;5035355;28;20054;-37
2021/05/18 03:09:59;;;;;;;0.35;0.00;;;;;;;27.63;30.39;96307.78;5028116;28;20032;-31
2021/05/18 03:12:24;;;;;;;0.10;0.10;;;;;;;27.63;30.31;96302.53;5031928;28;20636;-32
2021/05/18 03:14:49;;;;;;;0.38;0.10;;;;;;;27.63;30.37;96301.66;5024338;28;20040;-36
2021/05/18 03:17:15;;;;;;;1.70;0.10;;;;;;;27.62;30.41;96295.53;5028837;28;20033;-34
2021/05/18 03:19:41;;;;;;;0.28;0.13;;;;;;;27.63;30.30;96285.88;5023632;28;20025;-33
2021/05/18 03:22:06;;;;;;;0.10;0.10;;;;;;;27.62;30.27;96279.75;5030547;28;20502;-34
2021/05/18 03:24:31;;;;;;;0.75;0.20;;;;;;;27.63;30.30;96293.78;5037317;28;20033;-34
2021/05/18 03:26:57;;;;;;;1.63;0.30;;;;;;;27.63;30.18;96296.41;5032563;28;20051;-32
2021/05/18 03:29:25;;;;;;;0.10;0.10;;;;;;;27.62;30.12;96295.53;5026372;28;20083;-34
2021/05/18 03:34:38;;;;;;;0.20;0.20;;;;;;;27.60;30.23;96304.47;5031051;28;20032;-33
2021/05/18 03:39:43;;;;;;;0.22;0.20;;;;;;;27.59;30.30;96316.81;5027868;28;20028;-33
2021/05/18 03:42:33;;;;;;;0.20;0.10;;;;;;;27.59;30.31;96311.53;5032371;28;20031;-36
2021/05/18 03:45:02;;;;;;;0.85;0.20;;;;;;;27.59;30.32;96316.81;5030403;28;20469;-33
2021/05/18 03:53:05;;;;;;;0.10;0.10;;;;;;;27.59;30.30;96315.94;5037157;28;20087;-30
2021/05/18 04:03:30;;;;;;;0.25;0.10;;;;;;;27.58;30.28;96315.09;5019626;28;20062;-31
2021/05/18 04:11:48;;;;;;;0.47;0.13;;;;;;;27.57;30.24;96318.69;5032636;28;20081;-31
2021/05/18 04:16:58;;;;;;;0.63;0.20;;;;;;;27.55;30.37;96320.59;4999165;28;20787;-36
2021/05/18 04:19:28;;;;;;;0.25;0.10;;;;;;;27.57;30.14;96325.75;5035144;28;20016;-33
2021/05/18 04:22:11;;;;;;;0.55;0.20;;;;;;;27.55;30.32;96325.84;5032438;28;20673;-32
2021/05/18 04:38:38;;;;;;;1.27;0.20;;;;;;;27.55;30.26;96331.13;5027093;28;20411;-34
2021/05/18 04:54:02;;;;;;;0.45;0.13;;;;;;;27.52;30.24;96357.63;5028266;28;20029;-33
2021/05/18 05:04:23;;;;;;;2.65;0.03;;;;;;;27.49;30.35;96363.94;5040061;28;20025;-36
2021/05/18 05:09:26;;;;;;;0.75;0.10;;;;;;;27.50;30.15;96370.06;5029108;28;20021;-31
2021/05/18 05:14:36;;;;;;;0.55;0.25;;;;;;;27.51;30.21;96387.53;5035142;28;20043;-37
2021/05/18 05:17:02;;;;;;;0.20;0.10;;;;;;;27.50;30.21;96381.41;5025667;28;20038;-32
2021/05/18 05:19:29;;;;;;;0.70;0.10;;;;;;;27.50;30.28;96380.59;5031668;28;20021;-31
2021/05/18 05:21:57;;;;;;;0.10;0.10;;;;;;;27.50;30.39;96380.59;5031326;28;20044;-34
2021/05/18 05:24:23;;;;;;;0.65;0.17;;;;;;;27.50;30.33;96391.13;5028548;28;20135;-31
2021/05/18 05:26:48;;;;;;;0.52;0.10;;;;;;;27.49;30.28;96386.78;5034687;28;20041;-32
2021/05/18 05:29:14;;;;;;;0.03;0.03;;;;;;;27.50;30.26;96391.94;5034919;28;20047;-31
2021/05/18 05:31:40;;;;;;;0.43;0.10;;;;;;;27.49;30.27;96390.25;5036649;28;20123;-34
2021/05/18 05:34:05;;;;;;;0.15;0.15;;;;;;;27.50;30.26;96393.75;5038379;28;20477;-32
2021/05/18 05:36:31;;;;;;;0.00;0.00;;;;;;;27.50;30.47;96396.38;5020061;28;20110;-34
2021/05/18 05:39:03;;;;;;;0.08;0.08;;;;;;;27.49;30.37;96398.16;5035033;28;20036;-33
2021/05/18 05:41:29;;;;;;;0.20;0.10;;;;;;;27.49;30.20;96398.16;5037552;28;20120;-35
2021/05/18 05:43:54;;;;;;;0.22;0.20;;;;;;;27.50;30.29;96401.66;5034474;28;20716;-33
2021/05/18 05:46:20;;;;;;;0.22;0.20;;;;;;;27.50;30.29;96409.53;5025716;28;20040;-37
2021/05/18 05:48:52;;;;;;;0.50;0.10;;;;;;;27.49;30.29;96408.69;5035389;28;20509;-37
2021/05/18 05:51:18;;;;;;;0.00;0.00;;;;;;;27.47;30.28;96412.38;5036058;28;20035;-31
2021/05/18 05:53:43;;;;;;;0.15;0.10;;;;;;;27.49;30.24;96411.31;5038624;28;20029;-32
2021/05/18 05:56:09;;;;;;;0.10;0.10;;;;;;;27.49;30.21;96410.47;5034635;28;20094;-37
2021/05/18 05:58:34;;;;;;;0.25;0.20;;;;;;;27.50;30.28;96404.28;5025665;28;20017;-33
2021/05/18 06:01:00;;;;;;;0.25;0.20;;;;;;;27.48;30.22;96417.53;5026985;28;21025;-35
2021/05/18 06:03:25;;;;;;;0.10;0.10;;;;;;;27.48;30.29;96420.16;5034927;28;20718;-38
2021/05/18 06:05:51;;;;;;;0.10;0.10;;;;;;;27.49;30.23;96420.97;5032501;28;20142;-31
2021/05/18 06:08:16;;;;;;;1.20;0.20;;;;;;;27.49;30.28;96418.34;5014316;28;20025;-34
2021/05/18 06:10:44;;;;;;;1.20;0.15;;;;;;;27.49;30.40;96420.97;5031739;28;20086;-35
2021/05/18 06:16:14;;;;;;;0.32;0.17;;;;;;;27.48;30.32;96414.03;5031533;28;20055;-35
2021/05/18 06:37:34;;;;;;;0.63;0.15;;;;;;;27.45;30.31;96430.03;5030796;28;20032;-31
2021/05/18 06:43:29;;;;;;;2.83;0.73;;;;;;;27.44;30.48;96421.31;5026158;28;20550;-33
2021/05/18 06:48:10;;;;;;;16.88;1.10;;;;;;;27.43;30.31;96426.66;5013414;28;20991;-32
2021/05/18 06:50:35;;;;;;;2.80;0.40;;;;;;;27.45;30.39;96437.91;5025883;28;20052;-32
2021/05/18 06:53:01;;;;;;;2.08;0.50;;;;;;;27.46;30.21;96431.75;5024336;28;20044;-32
2021/05/18 06:55:29;;;;;;;3.95;0.40;;;;;;;27.45;30.19;96430.03;4999853;28;603025;-30
2021/05/18 06:58:01;;;;;;;1.30;0.50;;;;;;;27.47;29.81;96443.94;5018047;28;22256;-31
2021/05/18 07:00:26;;;;;;;4.13;0.65;;;;;;;27.45;29.22;96440.56;5027099;28;20477;-30
2021/05/18 07:02:53;;;;;;;5.90;0.90;;;;;;;27.43;28.93;96445.09;5026335;28;20036;-31
2021/05/18 07:05:36;;;;;;;5.07;0.60;;;;;;;27.39;28.90;96447.91;5017628;28;20375;-30
2021/05/18 07:10:36;;;;;;;2.00;0.77;;;;;;;27.34;28.89;96449.19;5023603;28;20052;-33
2021/05/18 07:13:01;;;;;;;4.20;0.70;;;;;;;27.31;28.78;96455.44;5027684;28;20035;-31
2021/05/18 07:15:28;;;;;;;1.75;0.65;;;;;;;27.29;28.74;96449.47;5025596;28;20029;-32
2021/05/18 07:17:56;;;;;;;2.97;0.77;;;;;;;27.26;28.64;96447.03;5027964;28;20236;-30
2021/05/18 07:20:22;;;;;;;2.45;0.70;;;;;;;27.24;28.57;96451.56;5027986;28;20617;-32
2021/05/18 07:22:50;;;;;;;6.03;0.80;;;;;;;27.21;28.52;96464.88;5026777;28;20060;-32
2021/05/18 07:25:15;;;;;;;2.05;0.60;;;;;;;27.20;28.49;96458.81;5023468;28;20106;-32
2021/05/18 07:27:41;;;;;;;4.53;0.90;;;;;;;27.19;28.43;96451.00;5024030;28;20541;-32
2021/05/18 07:30:07;;;;;;;3.90;0.70;;;;;;;27.18;28.49;96462.44;5024008;28;20041;-31
2021/05/18 07:32:32;;;;;;;0.82;0.52;;;;;;;27.16;28.27;96459.09;5024565;28;20112;-33
2021/05/18 07:34:57;;;;;;;2.25;0.60;;;;;;;27.13;28.33;96454.88;5025346;28;20028;-32
2021/05/18 07:37:23;;;;;;;1.45;0.50;;;;;;;27.11;28.27;96460.22;5026156;28;20035;-32
2021/05/18 07:39:48;;;;;;;1.48;0.68;;;;;;;27.10;28.20;96455.91;5022951;28;20078;-32
2021/05/18 07:42:14;;;;;;;2.10;0.70;;;;;;;27.10;28.47;96457.69;5023580;28;20028;-34
2021/05/18 07:44:40;;;;;;;6.00;0.70;;;;;;;27.07;28.24;96464.00;5022769;28;20033;-32
2021/05/18 07:47:05;;;;;;;2.00;0.80;;;;;;;27.06;28.29;96459.69;5025766;28;20438;-37
2021/05/18 07:49:43;;;;;;;2.10;1.00;;;;;;;27.06;28.25;96472.81;5025655;28;20707;-34
2021/05/18 08:05:28;;;;;;;1.70;0.68;;;;;;;27.06;29.14;96451.78;5027784;28;20024;-30
2021/05/18 08:07:54;;;;;;;0.85;0.50;;;;;;;27.08;29.49;96457.78;5023356;28;20036;-33
2021/05/18 08:11:03;;;;;;;2.00;0.60;;;;;;;27.10;29.60;96465.56;5025407;28;20430;-31
2021/05/18 08:13:08;;;;;;;1.55;0.50;;;;;;;27.13;29.73;96457.50;5026751;28;20037;-35
2021/05/18 10:38:18;;;;;;;2.17;1.20;;;;;;;27.37;29.34;96381.41;5028027;28;20032;-31
2021/05/18 10:40:43;;;;;;;2.85;1.20;;;;;;;27.38;29.48;96383.09;5025945;28;20033;-30
2021/05/18 10:43:11;;;;;;;3.10;1.30;;;;;;;27.41;29.46;96389.09;5027651;28;20044;-29
2021/05/18 10:45:53;;;;;;;4.25;1.20;;;;;;;27.42;29.44;96385.50;5013766;28;20808;-35
2021/05/18 10:48:24;;;;;;;2.60;1.15;;;;;;;27.44;29.41;96386.25;5024962;28;20024;-31
2021/05/18 10:50:50;;;;;;;4.50;1.60;;;;;;;27.45;29.53;96388.78;5025559;28;20703;-31
2021/05/18 10:53:24;;;;;;;4.97;1.40;;;;;;;27.45;29.50;96382.66;5026010;28;20033;-31
2021/05/18 10:56:06;;;;;;;7.10;1.58;;;;;;;27.47;29.57;96389.53;5035563;28;20060;-31
2021/05/18 10:58:31;;;;;;;2.42;1.27;;;;;;;27.49;29.49;96399.94;5026598;28;20039;-28
2021/05/18 11:00:58;;;;;;;2.20;1.10;;;;;;;27.50;29.54;96391.13;5026569;28;20325;-28
2021/05/18 11:03:23;;;;;;;2.83;1.20;;;;;;;27.51;29.59;96392.78;5032861;28;20033;-30
2021/05/18 11:05:50;;;;;;;4.82;1.17;;;;;;;27.51;29.58;96390.16;5032325;28;20618;-33
2021/05/18 11:08:16;;;;;;;2.17;1.10;;;;;;;27.51;29.63;96393.63;5028186;28;20044;-34
2021/05/18 11:10:41;;;;;;;2.30;1.15;;;;;;;27.52;29.78;96383.94;5019718;28;20028;-32
2021/05/18 11:13:08;;;;;;;5.25;1.25;;;;;;;27.55;29.77;96393.44;5003456;28;20040;-29
2021/05/18 11:15:34;;;;;;;3.05;1.27;;;;;;;27.54;29.69;96397.88;5018249;28;20044;-30
2021/05/18 11:17:59;;;;;;;2.92;1.27;;;;;;;27.55;29.73;96415.34;5002749;28;20041;-29
2021/05/18 11:20:36;;;;;;;4.30;1.23;;;;;;;27.57;29.72;96421.31;5025373;28;20025;-34
2021/05/18 11:25:58;;;;;;;3.63;1.30;;;;;;;27.58;29.78;96387.97;5039280;28;20098;-31
2021/05/18 11:28:28;;;;;;;2.67;1.33;;;;;;;27.58;29.76;96388.78;5032576;28;20052;-34
2021/05/18 11:30:55;;;;;;;1.88;0.85;;;;;;;27.59;29.76;96389.66;5022867;28;20144;-35
2021/05/18 11:33:33;;;;;;;2.45;1.02;;;;;;;27.59;29.79;96387.00;5019331;28;20059;-31
2021/05/18 11:36:23;;;;;;;1.83;0.95;;;;;;;27.59;29.83;96393.13;5033113;28;20112;-29
2021/05/18 11:38:53;;;;;;;2.55;1.30;;;;;;;27.59;29.85;96390.50;5023784;28;20029;-34
2021/05/18 11:41:22;;;;;;;2.40;1.17;;;;;;;27.61;29.80;96398.31;5027370;28;20732;-33
2021/05/18 11:43:48;;;;;;;4.15;1.38;;;;;;;27.60;29.94;96381.66;5027441;28;20043;-31
2021/05/18 11:46:13;;;;;;;5.15;1.58;;;;;;;27.61;29.89;96393.88;5026593;28;20029;-34
2021/05/18 11:48:41;;;;;;;7.30;1.45;;;;;;;27.62;29.86;96385.03;5023868;28;20032;-30
2021/05/18 11:51:08;;;;;;;3.50;1.17;;;;;;;27.61;30.04;96372.00;5023076;28;20095;-31
2021/05/18 11:53:52;;;;;;;5.50;1.13;;;;;;;27.63;30.15;96370.97;5025781;28;20056;-32
2021/05/18 11:56:25;;;;;;;3.38;1.40;;;;;;;27.63;30.25;96365.69;5023568;28;20059;-34
2021/05/18 11:59:04;;;;;;;3.33;1.30;;;;;;;27.65;30.23;96358.53;5032434;28;20037;-32
2021/05/18 12:01:34;;;;;;;5.35;1.40;;;;;;;27.65;30.33;96349.78;5022756;28;20962;-31
2021/05/18 12:04:12;;;;;;;4.10;1.40;;;;;;;27.70;30.39;96354.72;5027828;28;20071;-29
2021/05/18 12:06:42;;;;;;;2.65;1.33;;;;;;;27.71;30.45;96349.38;5012127;28;20651;-32
2021/05/18 12:09:10;;;;;;;3.75;1.70;;;;;;;27.72;30.52;96350.22;5027768;28;20689;-32
2021/05/18 12:11:35;;;;;;;3.33;1.50;;;;;;;27.73;30.62;96355.34;5022657;28;20116;-31
2021/05/18 12:14:06;;;;;;;3.42;1.27;;;;;;;27.75;30.63;96353.47;5021699;28;20033;-29
2021/05/18 12:16:31;;;;;;;3.08;1.30;;;;;;;27.75;30.67;96348.22;5017463;28;20189;-29
2021/05/18 12:18:58;;;;;;;2.78;1.40;;;;;;;27.77;30.55;96346.31;5023746;28;20554;-31
2021/05/18 12:21:24;;;;;;;1.10;0.80;;;;;;;27.79;30.75;96338.31;5030697;28;20112;-30
2021/05/18 12:24:14;;;;;;;2.88;1.15;;;;;;;27.81;30.75;96340.84;5027373;28;20186;-32
2021/05/18 12:26:52;;;;;;;2.38;1.30;;;;;;;27.81;30.84;96341.69;5026695;28;20036;-31
2021/05/18 12:29:45;;;;;;;2.58;1.10;;;;;;;27.83;31.03;96334.50;5030387;28;20547;-30
2021/05/18 12:32:23;;;;;;;10.02;1.60;;;;;;;27.85;31.11;96337.03;5031619;28;20454;-30
2021/05/18 12:34:50;;;;;;;4.22;1.60;;;;;;;27.85;31.13;96337.91;5035429;28;20345;-31
2021/05/18 12:37:16;;;;;;;6.85;1.65;;;;;;;27.86;31.40;96334.31;5020191;28;20033;-29
2021/05/18 12:39:42;;;;;;;4.50;1.80;;;;;;;27.87;31.42;96333.34;5027366;28;20578;-35
2021/05/18 12:42:11;;;;;;;8.32;1.85;;;;;;;27.88;31.65;96329.78;5025394;28;20051;-35
2021/05/18 12:44:59;;;;;;;6.55;1.70;;;;;;;27.90;31.70;96330.53;5025914;28;20020;-32
2021/05/18 12:47:31;;;;;;;7.43;1.60;;;;;;;27.91;31.78;96332.19;5023410;28;20075;-30
2021/05/18 12:49:59;;;;;;;10.82;1.52;;;;;;;27.92;31.92;96360.22;5024011;28;20037;-31
2021/05/18 12:52:52;;;;;;;6.32;2.00;;;;;;;27.95;32.08;96343.34;5022275;28;20200;-34
2021/05/18 12:55:28;;;;;;;6.85;1.95;;;;;;;27.95;32.34;96343.34;5023371;28;20025;-32
2021/05/18 12:57:58;;;;;;;5.90;1.85;;;;;;;27.96;32.32;96344.22;5033283;28;20225;-37
2021/05/18 13:00:39;;;;;;;7.88;1.90;;;;;;;27.96;32.29;96337.13;5029839;28;20024;-33
2021/05/18 13:03:14;;;;;;;12.88;2.20;;;;;;;27.98;32.52;96331.75;5037098;28;20658;-31
2021/05/18 13:05:41;;;;;;;7.57;2.50;;;;;;;27.98;32.52;96337.03;5026074;28;20036;-29
2021/05/18 13:08:09;;;;;;;6.07;2.30;;;;;;;27.99;32.66;96346.63;5026032;28;20288;-33
2021/05/18 13:13:26;;;;;;;;;;;;;;;28.01;32.66;96331.56;5027182;28;20028;-31
2021/05/18 13:15:58;;;;;;;11.73;2.42;;;;;;;28.02;32.76;96333.22;5027858;28;19917;-31
2021/05/18 13:18:23;;;;;;;7.78;2.50;;;;;;;28.01;32.67;96331.56;5018327;28;20067;-30
2021/05/18 13:20:52;;;;;;;8.75;2.67;;;;;;;28.02;32.86;96343.78;5027330;28;20022;-31
2021/05/18 13:23:26;;;;;;;8.50;2.67;;;;;;;28.02;32.85;96338.50;5020455;28;20024;-34
2021/05/18 13:28:36;;;;;;;7.70;2.80;;;;;;;28.04;33.10;96339.25;5026667;28;20048;-31
2021/05/18 13:31:01;;;;;;;4.97;1.90;;;;;;;28.04;33.05;96342.72;5031478;28;20037;-32
2021/05/18 13:33:27;;;;;;;4.45;2.20;;;;;;;28.04;32.89;96349.78;5027227;28;20041;-36
2021/05/18 13:35:52;;;;;;;4.75;2.05;;;;;;;28.06;32.95;96358.41;5029227;28;20037;-34
2021/05/18 13:38:18;;;;;;;5.55;2.25;;;;;;;28.05;32.98;96367.28;5036945;28;20037;-31
2021/05/18 13:40:43;;;;;;;4.78;2.05;;;;;;;28.04;33.00;96355.06;5028965;28;20021;-29
2021/05/18 13:43:08;;;;;;;8.07;2.08;;;;;;;28.07;33.08;96349.56;5029403;28;20241;-29
2021/05/18 13:45:34;;;;;;;8.85;2.60;;;;;;;28.08;32.90;96359.16;5027552;28;20037;-33
2021/05/18 13:47:59;;;;;;;8.60;2.28;;;;;;;28.09;33.14;96365.25;5028274;28;20037;-33
2021/05/18 13:50:26;;;;;;;7.07;2.10;;;;;;;28.09;32.91;96357.34;5030045;28;20618;-31
2021/05/18 13:52:51;;;;;;;5.25;1.90;;;;;;;28.10;33.02;96357.25;5028476;28;20094;-32
2021/05/18 13:55:17;;;;;;;5.28;2.15;;;;;;;28.10;32.81;96362.53;5028027;28;20272;-32
2021/05/18 13:57:43;;;;;;;4.10;1.90;;;;;;;28.10;33.08;96362.53;5028358;28;21988;-31
2021/05/18 14:00:10;;;;;;;7.60;1.77;;;;;;;28.11;32.86;96356.28;5024489;28;20463;-31
2021/05/18 14:02:39;;;;;;;10.55;2.20;;;;;;;28.12;32.92;96358.00;5029241;28;20044;-33
2021/05/18 14:05:06;;;;;;;4.70;2.10;;;;;;;28.13;32.97;96348.28;5029709;28;20143;-34
2021/05/18 14:07:56;;;;;;;3.30;1.65;;;;;;;28.13;33.04;96341.25;5019567;28;20309;-31
2021/05/18 14:10:21;;;;;;;5.40;2.08;;;;;;;28.14;32.94;96332.38;5026884;28;20037;-31
2021/05/18 14:12:47;;;;;;;4.68;1.95;;;;;;;28.14;32.86;96335.00;5027946;28;20033;-35
2021/05/18 14:15:12;;;;;;;4.57;1.60;;;;;;;28.14;32.83;96332.38;5028430;28;20025;-32
2021/05/18 14:17:38;;;;;;;4.32;2.08;;;;;;;28.15;32.85;96339.31;5027712;28;20052;-33
2021/05/18 14:20:05;;;;;;;3.17;1.55;;;;;;;28.15;32.88;96333.25;5030221;28;20024;-29
2021/05/18 14:22:30;;;;;;;6.30;1.67;;;;;;;28.14;32.74;96327.13;5031738;28;20151;-35
2021/05/18 14:25:05;;;;;;;6.25;1.67;;;;;;;28.12;32.77;96322.91;5023139;28;20538;-30
2021/05/18 14:27:35;;;;;;;3.80;1.90;;;;;;;28.14;32.89;96316.56;5020573;28;20526;-30
2021/05/18 14:30:01;;;;;;;3.92;1.52;;;;;;;28.14;32.72;96316.56;5029272;28;20036;-30
2021/05/18 14:32:26;;;;;;;3.97;1.70;;;;;;;28.15;32.71;96320.88;5026675;28;20037;-32
2021/05/18 14:34:52;;;;;;;4.53;1.77;;;;;;;28.15;32.74;96315.63;5026088;28;20041;-30
2021/05/18 14:37:21;;;;;;;3.50;1.70;;;;;;;28.15;32.66;96312.97;5026258;28;20059;-31
2021/05/18 14:45:07;;;;;;;4.93;1.80;;;;;;;28.15;32.75;96318.25;5027116;28;20048;-33
2021/05/18 14:47:48;;;;;;;4.25;1.60;;;;;;;28.16;32.74;96330.50;5029123;28;20055;-29
2021/05/18 14:55:42;;;;;;;3.40;1.50;;;;;;;28.16;33.03;96319.97;5026518;28;20115;-32
2021/05/18 14:58:07;;;;;;;4.25;1.67;;;;;;;28.17;33.07;96326.91;5027661;28;20040;-33
2021/05/18 15:00:33;;;;;;;3.78;1.27;;;;;;;28.16;32.93;96319.97;5026332;28;20037;-29
2021/05/18 15:02:58;;;;;;;4.72;1.70;;;;;;;28.18;33.13;96319.81;5014125;28;20430;-33
2021/05/18 15:05:25;;;;;;;3.67;1.40;;;;;;;28.18;33.18;96317.19;5026442;28;20703;-33
2021/05/18 15:07:51;;;;;;;5.18;1.45;;;;;;;28.19;33.13;96316.25;5028281;28;20078;-33
2021/05/18 15:10:16;;;;;;;4.50;1.20;;;;;;;28.20;32.96;96325.00;5025428;28;20025;-32
2021/05/18 15:12:41;;;;;;;3.67;1.50;;;;;;;28.20;33.05;96319.72;5026809;28;20032;-32
2021/05/18 15:15:07;;;;;;;2.95;1.40;;;;;;;28.17;33.11;96315.50;5024002;28;20518;-32
2021/05/18 15:17:33;;;;;;;3.88;1.83;;;;;;;28.21;33.04;96321.41;5025218;28;20036;-30
2021/05/18 15:19:59;;;;;;;3.08;1.30;;;;;;;28.21;33.10;96316.13;5006805;28;20147;-29
2021/05/18 15:22:25;;;;;;;4.05;1.15;;;;;;;28.21;33.10;96316.13;5020230;28;20029;-32
2021/05/18 15:24:51;;;;;;;4.53;1.20;;;;;;;28.22;33.19;96320.47;5018151;28;20386;-37
2021/05/18 15:27:16;;;;;;;3.78;1.42;;;;;;;28.21;33.12;96316.97;5018289;28;20028;-31
2021/05/18 15:29:41;;;;;;;5.57;1.42;;;;;;;28.22;32.82;96317.84;5017020;28;20033;-32
2021/05/18 15:32:07;;;;;;;2.30;1.10;;;;;;;28.22;33.01;96318.66;4996627;28;20040;-29
2021/05/18 15:34:34;;;;;;;3.30;1.20;;;;;;;28.22;33.10;96317.84;5017706;28;20311;-33
2021/05/18 15:37:00;;;;;;;4.85;1.10;;;;;;;28.21;33.16;96316.97;5026673;28;20055;-29
2021/05/18 15:39:26;;;;;;;2.20;0.90;;;;;;;28.22;33.19;96323.09;5026539;28;20032;-33
2021/05/18 15:41:52;;;;;;;4.03;1.30;;;;;;;28.22;33.21;96320.47;5016857;28;21869;-29
2021/05/18 15:44:17;;;;;;;3.83;1.27;;;;;;;28.22;33.10;96328.38;5026251;28;20115;-36
2021/05/18 15:46:43;;;;;;;4.18;1.20;;;;;;;28.22;33.21;96323.94;5020876;28;20120;-34
2021/05/18 15:49:09;;;;;;;3.38;1.10;;;;;;;28.22;33.36;96328.38;5032622;28;20115;-31
2021/05/18 15:51:34;;;;;;;2.50;1.30;;;;;;;28.23;33.33;96319.50;5031371;28;20564;-32
2021/05/18 15:53:59;;;;;;;4.82;1.13;;;;;;;28.24;33.20;96321.19;5025619;28;20072;-31
2021/05/18 15:56:25;;;;;;;3.83;1.23;;;;;;;28.24;33.23;96326.47;5028461;28;20561;-31
2021/05/18 15:58:50;;;;;;;3.35;1.30;;;;;;;28.24;33.34;96329.09;5028100;28;20028;-37
2021/05/18 16:01:16;;;;;;;2.55;1.05;;;;;;;28.25;33.37;96325.50;5036483;28;20106;-31
2021/05/18 16:03:42;;;;;;;2.53;1.08;;;;;;;28.25;33.27;96320.22;5033396;28;20519;-32
2021/05/18 16:06:07;;;;;;;3.70;1.05;;;;;;;28.25;33.29;96317.59;5016850;28;20025;-31
2021/05/18 16:11:01;;;;;;;3.22;1.27;;;;;;;28.24;33.30;96306.25;5019394;28;20029;-32
2021/05/18 16:13:27;;;;;;;4.07;0.98;;;;;;;28.26;33.37;96314.06;5022641;28;20021;-33
2021/05/18 16:15:55;;;;;;;3.90;1.25;;;;;;;28.25;33.44;96312.34;5020219;28;20673;-31
2021/05/18 16:18:20;;;;;;;4.40;1.33;;;;;;;28.26;33.38;96311.44;5019709;28;20037;-36
2021/05/18 16:20:45;;;;;;;4.70;1.13;;;;;;;28.26;33.43;96321.97;5018334;28;20746;-35
2021/05/18 16:23:11;;;;;;;3.13;1.40;;;;;;;28.26;33.51;96317.53;5016621;28;20044;-33
2021/05/18 16:25:36;;;;;;;2.60;1.00;;;;;;;28.25;32.05;96312.34;5016170;28;20044;-34
2021/05/18 16:28:02;;;;;;;3.40;0.97;;;;;;;28.18;28.68;96312.78;3975805;28;10001400;-31
2021/05/18 16:30:27;;;;;;;1.40;0.60;;;;;;;28.07;26.77;96310.03;5017378;28;20056;-33
2021/05/18 16:32:53;;;;;;;5.32;0.93;;;;;;;27.94;26.11;96314.50;5016222;28;20025;-35